Time;durP1;ratioP1;P1;durP2;ratioP2;P2;SDS_P1;SDS_P2;PMS_P1;PMS_P2;Temp;Humidity;BMP_temperature;BMP_pressure;BME280_temperature;BME280_humidity;BME280_pressure;Samples;Min_cycle;Max_cycle;Signal;HPM_P1;HPM_P2
2022/05/10 00:00:28;;;;;;;;;;;;;;;14.74;64.25;97471.81;30001;983;1869;-61
2022/05/10 00:01:00;;;;;;;;;;;;;;;14.73;64.19;97472.94;30001;982;1868;-63
2022/05/10 00:01:32;;;;;;;;;;;;;;;14.73;64.52;97461.19;30001;982;1882;-60
2022/05/10 00:02:03;;;;;;;;;;;;;;;14.70;64.64;97468.06;30001;982;1878;-62
2022/05/10 00:02:34;;;;;;;;;;;;;;;14.71;64.41;97464.22;30001;982;1882;-61
2022/05/10 00:03:06;;;;;;;;;;;;;;;14.71;64.39;97461.50;30001;982;1878;-62
2022/05/10 00:03:37;;;;;;;;;;;;;;;14.73;64.58;97466.66;30001;983;1881;-62
2022/05/10 00:04:09;;;;;;;;;;;;;;;14.73;64.43;97462.00;30001;983;1864;-63
2022/05/10 00:04:41;;;;;;;;;;;;;;;14.72;64.19;97463.13;30001;983;1872;-61
2022/05/10 00:05:12;;;;;;;;;;;;;;;14.71;64.48;97464.22;30001;983;1877;-62
2022/05/10 00:05:43;;;;;;;;;;;;;;;14.70;64.53;97462.59;30001;983;1881;-64
2022/05/10 00:06:14;;;;;;;;;;;;;;;14.68;64.45;97462.09;30001;983;1877;-61
2022/05/10 00:06:46;;;;;;;;;;;;;;;14.67;64.60;97460.50;30001;983;1882;-62
2022/05/10 00:07:18;;;;;;;;;;;;;;;14.69;64.37;97466.44;30001;983;1864;-64
2022/05/10 00:07:49;;;;;;;;;;;;;;;14.70;64.43;97465.34;30001;983;1873;-62
2022/05/10 00:08:21;;;;;;;;;;;;;;;14.72;64.41;97459.56;30001;982;1877;-61
2022/05/10 00:08:51;;;;;;;;;;;;;;;14.69;64.69;97463.72;30001;982;1882;-63
2022/05/10 00:09:27;;;;;;;;;;;;;;;14.68;64.45;97459.38;30001;982;1864;-63
2022/05/10 00:09:58;;;;;;;;;;;;;;;14.67;64.50;97460.50;30001;982;1873;-64
2022/05/10 00:10:30;;;;;;;;;;;;;;;14.65;64.53;97459.97;30001;982;1877;-64
2022/05/10 00:11:01;;;;;;;;;;;;;;;14.65;64.70;97459.97;30001;983;1881;-64
2022/05/10 00:11:32;;;;;;;;;;;;;;;14.65;64.63;97459.97;30001;983;1876;-62
2022/05/10 00:12:03;;;;;;;;;;;;;;;14.64;64.89;97463.81;30001;983;1881;-63
2022/05/10 00:12:34;;;;;;;;;;;;;;;14.62;64.41;97460.59;30001;983;1877;-62
2022/05/10 00:13:05;;;;;;;;;;;;;;;14.65;64.71;97459.97;30001;983;1881;-63
2022/05/10 00:13:37;;;;;;;;;;;;;;;14.65;64.35;97459.97;30001;983;1877;-62
2022/05/10 00:14:07;;;;;;;;;;;;;;;14.64;64.62;97458.38;30001;987;1873;-64
2022/05/10 00:14:39;;;;;;;;;;;;;;;14.66;64.42;97461.59;30001;983;1868;-62
2022/05/10 00:15:10;;;;;;;;;;;;;;;14.66;64.54;97456.13;30001;983;1855;-63
2022/05/10 00:15:42;;;;;;;;;;;;;;;14.63;64.55;97462.19;30001;983;1882;-63
2022/05/10 00:16:14;;;;;;;;;;;;;;;14.62;64.35;97459.78;30001;982;1877;-63
2022/05/10 00:16:45;;;;;;;;;;;;;;;14.62;64.73;97457.03;30001;982;1882;-62
2022/05/10 00:17:27;;;;;;;;;;;;;;;14.60;64.55;97457.34;30001;982;1878;-63
2022/05/10 00:17:57;;;;;;;;;;;;;;;14.58;64.42;97459.56;30001;982;1882;-63
2022/05/10 00:18:29;;;;;;;;;;;;;;;14.60;64.62;97451.09;30001;983;1877;-63
2022/05/10 00:19:00;;;;;;;;;;;;;;;14.60;64.74;97451.09;30001;983;1881;-64
2022/05/10 00:19:31;;;;;;;;;;;;;;;14.58;64.79;97458.75;30001;983;1877;-62
2022/05/10 00:20:02;;;;;;;;;;;;;;;14.56;64.85;97450.88;30001;983;1868;-62
2022/05/10 00:20:33;;;;;;;;;;;;;;;14.56;65.10;97458.25;30001;983;1868;-63
2022/05/10 00:21:05;;;;;;;;;;;;;;;14.61;64.81;97458.16;30001;983;1881;-64
2022/05/10 00:21:36;;;;;;;;;;;;;;;14.62;64.56;97457.84;30001;983;1877;-62
2022/05/10 00:22:09;;;;;;;;;;;;;;;14.62;64.67;97455.13;30001;983;1868;-63
2022/05/10 00:22:41;;;;;;;;;;;;;;;14.61;64.65;97463.63;30001;982;1855;-64
2022/05/10 00:23:12;;;;;;;;;;;;;;;14.59;64.50;97461.19;30001;982;1882;-62
2022/05/10 00:23:43;;;;;;;;;;;;;;;14.56;64.62;97456.34;30001;982;1877;-64
2022/05/10 00:24:14;;;;;;;;;;;;;;;14.58;64.65;97459.56;30001;982;1882;-63
2022/05/10 00:24:44;;;;;;;;;;;;;;;14.60;65.13;97456.53;30001;982;1878;-64
2022/05/10 00:25:17;;;;;;;;;;;;;;;14.59;64.83;97454.91;30001;982;1869;-62
2022/05/10 00:25:48;;;;;;;;;;;;;;;14.57;64.95;97457.97;30001;982;1869;-62
2022/05/10 00:26:19;;;;;;;;;;;;;;;14.57;65.12;97452.50;30001;983;1881;-64
2022/05/10 00:26:50;;;;;;;;;;;;;;;14.55;64.89;97453.94;30001;983;1864;-62
2022/05/10 00:27:21;;;;;;;;;;;;;;;14.54;65.20;97453.13;30001;983;1872;-62
2022/05/10 00:27:52;;;;;;;;;;;;;;;14.54;65.18;97458.59;30001;983;1877;-62
2022/05/10 00:28:23;;;;;;;;;;;;;;;14.55;65.30;97459.41;30001;983;1881;-62
2022/05/10 00:28:54;;;;;;;;;;;;;;;14.54;65.29;97457.78;30001;983;1877;-62
2022/05/10 00:29:25;;;;;;;;;;;;;;;14.53;65.42;97459.72;30001;983;1882;-64
2022/05/10 00:29:55;;;;;;;;;;;;;;;14.53;65.19;97456.97;30001;983;1864;-62
2022/05/10 00:30:27;;;;;;;;;;;;;;;14.51;65.32;97453.75;30001;982;1873;-63
2022/05/10 00:30:58;;;;;;;;;;;;;;;14.54;65.35;97455.06;30001;982;1877;-62
2022/05/10 00:31:29;;;;;;;;;;;;;;;14.51;65.40;97451.00;30001;982;1882;-63
2022/05/10 00:32:00;;;;;;;;;;;;;;;14.52;65.25;97449.91;30001;982;1877;-62
2022/05/10 00:32:33;;;;;;;;;;;;;;;14.52;65.12;97455.34;30001;982;1869;-62
2022/05/10 00:33:03;;;;;;;;;;;;;;;14.52;65.50;97458.09;30001;982;1869;-64
2022/05/10 00:33:34;;;;;;;;;;;;;;;14.51;65.32;97448.28;30001;983;1881;-63
2022/05/10 00:34:05;;;;;;;;;;;;;;;14.51;65.43;97447.47;30001;983;1877;-62
2022/05/10 00:34:36;;;;;;;;;;;;;;;14.51;65.18;97453.75;30001;983;1881;-61
2022/05/10 00:35:15;;;;;;;;;;;;;;;14.52;65.48;97449.09;30001;983;1864;-57
2022/05/10 00:35:46;;;;;;;;;;;;;;;14.52;65.56;97452.63;30001;983;1860;-64
2022/05/10 00:36:18;;;;;;;;;;;;;;;14.51;65.48;97452.94;30001;983;1877;-64
2022/05/10 00:36:49;;;;;;;;;;;;;;;14.47;65.46;97450.00;30001;983;1881;-62
2022/05/10 00:37:21;;;;;;;;;;;;;;;14.47;65.62;97452.72;30001;983;1877;-64
2022/05/10 00:37:54;;;;;;;;;;;;;;;14.47;65.53;97458.19;30001;982;1881;-63
2022/05/10 00:38:33;;;;;;;;;;;;;;;14.48;65.71;97448.88;30001;982;1877;-63
2022/05/10 00:39:03;;;;;;;;;;;;;;;14.50;65.34;97454.84;30001;982;1868;-62
2022/05/10 00:39:34;;;;;;;;;;;;;;;14.52;65.58;97449.09;30001;982;1869;-62
2022/05/10 00:40:06;;;;;;;;;;;;;;;14.50;65.71;97452.12;30001;982;1882;-61
2022/05/10 00:40:37;;;;;;;;;;;;;;;14.51;65.81;97447.47;30001;983;1876;-63
2022/05/10 00:41:12;;;;;;;;;;;;;;;14.49;65.49;97450.50;30001;983;1868;-62
2022/05/10 00:41:56;;;;;;;;;;;;;;;14.49;65.78;97447.78;30001;983;1855;-64
2022/05/10 00:42:45;;;;;;;;;;;;;;;14.50;65.64;97457.59;30001;983;1881;-62
2022/05/10 00:43:28;;;;;;;;;;;;;;;14.51;65.97;97448.28;30001;982;1878;-63
2022/05/10 00:44:02;;;;;;;;;;;;;;;14.48;65.40;97448.88;30001;983;1881;-60
2022/05/10 00:44:39;;;;;;;;;;;;;;;14.48;65.86;97450.81;30001;983;1877;-62
2022/05/10 00:45:15;;;;;;;;;;;;;;;14.47;65.79;97447.25;30001;983;1882;-62
2022/05/10 00:46:18;;;;;;;;;;;;;;;14.46;66.14;97451.09;30001;982;1877;-61
2022/05/10 00:47:13;;;;;;;;;;;;;;;14.52;65.95;97447.16;30001;982;1864;-62
2022/05/10 00:47:52;;;;;;;;;;;;;;;14.51;65.86;97448.28;30001;982;1869;-62
2022/05/10 00:48:45;;;;;;;;;;;;;;;14.54;65.89;97447.66;30001;983;1881;-65
2022/05/10 00:49:48;;;;;;;;;;;;;;;14.52;65.85;97454.53;30001;983;1872;-63
2022/05/10 00:50:41;;;;;;;;;;;;;;;14.51;65.75;97452.94;30001;983;1864;-57
2022/05/10 00:51:16;;;;;;;;;;;;;;;14.51;65.77;97448.28;30001;983;1855;-63
2022/05/10 00:51:50;;;;;;;;;;;;;;;14.51;65.77;97448.28;30001;983;1868;-64
2022/05/10 00:52:32;;;;;;;;;;;;;;;14.52;66.13;97447.16;30001;983;1855;-62
2022/05/10 00:53:13;;;;;;;;;;;;;;;14.52;66.08;97443.62;30001;985;1872;-62
2022/05/10 00:53:51;;;;;;;;;;;;;;;14.51;66.04;97440.09;30001;982;1882;-62
2022/05/10 00:54:29;;;;;;;;;;;;;;;14.52;65.70;97449.09;30001;982;1878;-61
2022/05/10 00:55:11;;;;;;;;;;;;;;;14.50;65.56;97441.19;30001;982;1882;-63
2022/05/10 00:55:50;;;;;;;;;;;;;;;14.48;65.85;97437.97;30001;983;1877;-62
2022/05/10 00:56:28;;;;;;;;;;;;;;;14.46;65.82;97445.66;30001;983;1868;-63
2022/05/10 00:57:12;;;;;;;;;;;;;;;14.44;66.29;97447.87;30001;983;1855;-62
2022/05/10 00:57:52;;;;;;;;;;;;;;;14.40;66.10;97441.38;30001;983;1881;-62
2022/05/10 00:58:44;;;;;;;;;;;;;;;14.38;65.93;97443.59;30001;983;1877;-61
2022/05/10 00:59:21;;;;;;;;;;;;;;;14.38;66.17;97432.66;30001;983;1882;-61
2022/05/10 01:00:12;;;;;;;;;;;;;;;14.38;66.45;97438.13;30001;983;1877;-62
2022/05/10 01:00:44;;;;;;;;;;;;;;;14.36;66.08;97437.63;30001;982;1877;-64
2022/05/10 01:01:19;;;;;;;;;;;;;;;14.36;66.34;97441.16;30001;982;1877;-63
2022/05/10 01:01:52;;;;;;;;;;;;;;;14.37;66.30;97436.50;30001;982;1869;-62
2022/05/10 01:02:49;;;;;;;;;;;;;;;14.35;66.40;97444.19;30001;982;1869;-62
2022/05/10 01:03:32;;;;;;;;;;;;;;;14.34;66.15;97437.12;30001;983;1877;-61
2022/05/10 01:04:16;;;;;;;;;;;;;;;14.33;66.42;97438.22;30001;983;1877;-63
2022/05/10 01:04:50;;;;;;;;;;;;;;;14.31;66.49;97437.72;30001;983;1868;-62
2022/05/10 01:05:28;;;;;;;;;;;;;;;14.31;66.55;97437.72;30001;983;1868;-64
2022/05/10 01:06:17;;;;;;;;;;;;;;;14.33;66.70;97439.03;30001;983;1881;-64
2022/05/10 01:07:10;;;;;;;;;;;;;;;14.34;66.29;97437.94;30001;983;1869;-62
2022/05/10 01:07:49;;;;;;;;;;;;;;;14.34;66.69;97442.56;30001;982;1877;-62
2022/05/10 01:08:22;;;;;;;;;;;;;;;14.34;66.48;97437.94;30001;982;1877;-63
2022/05/10 01:09:13;;;;;;;;;;;;;;;14.37;66.57;97433.78;30001;982;1882;-58
2022/05/10 01:10:07;;;;;;;;;;;;;;;14.37;66.03;97437.31;30001;982;1865;-61
2022/05/10 01:10:43;;;;;;;;;;;;;;;14.39;66.38;97439.75;30001;970;1788;-63
2022/05/10 01:11:18;;;;;;;;;;;;;;;14.37;66.21;97433.78;30001;983;1877;-63
2022/05/10 01:11:59;;;;;;;;;;;;;;;14.37;66.25;97431.06;30001;983;1881;-62
2022/05/10 01:12:49;;;;;;;;;;;;;;;14.37;65.96;97431.06;30001;983;1864;-62
2022/05/10 01:13:35;;;;;;;;;;;;;;;14.37;66.28;97437.31;30001;983;1855;-62
2022/05/10 01:14:26;;;;;;;;;;;;;;;14.37;66.18;97437.31;30001;983;1877;-63
2022/05/10 01:15:09;;;;;;;;;;;;;;;14.38;66.37;97429.94;30001;982;1877;-62
2022/05/10 01:15:41;;;;;;;;;;;;;;;14.35;66.39;97427.81;30001;982;1877;-62
2022/05/10 01:16:13;;;;;;;;;;;;;;;14.34;66.38;97426.19;30001;982;1882;-62
2022/05/10 01:16:44;;;;;;;;;;;;;;;14.33;66.23;97430.84;30001;982;1878;-62
2022/05/10 01:17:16;;;;;;;;;;;;;;;14.33;66.44;97430.03;30001;982;1869;-66
2022/05/10 01:17:50;;;;;;;;;;;;;;;14.34;66.08;97428.94;30001;982;1869;-63
2022/05/10 01:18:22;;;;;;;;;;;;;;;14.34;66.23;97418.00;30001;983;1881;-63
2022/05/10 01:18:53;;;;;;;;;;;;;;;14.34;66.26;97426.19;30001;983;1868;-63
2022/05/10 01:19:24;;;;;;;;;;;;;;;14.32;66.33;97423.78;30001;983;1877;-62
2022/05/10 01:19:55;;;;;;;;;;;;;;;14.34;66.26;97426.19;30001;983;1881;-63
2022/05/10 01:20:30;;;;;;;;;;;;;;;14.36;66.17;97423.97;30001;983;1886;-62
2022/05/10 01:21:10;;;;;;;;;;;;;;;14.38;66.00;97421.75;30001;983;1881;-63
2022/05/10 01:22:01;;;;;;;;;;;;;;;14.38;66.09;97424.47;30001;983;1873;-62
2022/05/10 01:22:54;;;;;;;;;;;;;;;14.37;66.20;97425.59;30001;982;1868;-62
2022/05/10 01:23:51;;;;;;;;;;;;;;;14.34;65.99;97426.19;30001;982;1881;-62
2022/05/10 01:24:41;;;;;;;;;;;;;;;14.36;65.86;97421.25;30001;982;1878;-63
2022/05/10 01:25:31;;;;;;;;;;;;;;;14.37;65.80;97422.84;30001;982;1878;-62
2022/05/10 01:26:12;;;;;;;;;;;;;;;14.35;66.00;97423.16;30001;983;1881;-62
2022/05/10 01:27:20;;;;;;;;;;;;;;;14.34;66.20;97418.81;30001;983;1872;-63
2022/05/10 01:28:09;;;;;;;;;;;;;;;14.35;66.06;97422.34;30001;983;1855;-64
2022/05/10 01:28:44;;;;;;;;;;;;;;;14.35;65.79;97422.34;30001;983;1877;-62
2022/05/10 01:29:27;;;;;;;;;;;;;;;14.35;65.72;97419.63;30001;983;1882;-61
2022/05/10 01:30:27;;;;;;;;;;;;;;;14.34;65.89;97420.72;30001;982;1873;-62
2022/05/10 01:31:02;;;;;;;;;;;;;;;14.33;66.14;97419.13;30001;982;1868;-63
2022/05/10 01:31:37;;;;;;;;;;;;;;;14.33;65.92;97413.66;30001;982;1886;-62
2022/05/10 01:33:29;;;;;;;;;;;;;;;14.35;66.07;97419.63;30001;983;1885;-62
2022/05/10 01:34:11;;;;;;;;;;;;;;;14.31;65.75;97416.69;30001;983;1881;-62
2022/05/10 01:34:42;;;;;;;;;;;;;;;14.30;65.76;97409.63;30001;983;1885;-63
2022/05/10 01:35:18;;;;;;;;;;;;;;;14.31;65.86;97413.97;30001;983;1868;-61
2022/05/10 01:36:09;;;;;;;;;;;;;;;14.29;65.92;97412.66;30001;983;1877;-64
2022/05/10 01:36:45;;;;;;;;;;;;;;;14.30;66.02;97420.53;30001;983;1877;-63
2022/05/10 01:37:18;;;;;;;;;;;;;;;14.29;66.03;97415.38;30001;982;1886;-63
2022/05/10 01:37:52;;;;;;;;;;;;;;;14.30;65.85;97417.00;30001;982;1882;-62
2022/05/10 01:38:37;;;;;;;;;;;;;;;14.30;66.05;97411.53;30001;982;1886;-61
2022/05/10 01:39:13;;;;;;;;;;;;;;;14.30;65.76;97414.25;30001;982;1882;-62
2022/05/10 01:39:52;;;;;;;;;;;;;;;14.30;65.84;97408.81;30001;982;1886;-62
2022/05/10 01:40:43;;;;;;;;;;;;;;;14.30;65.79;97414.25;30001;983;1868;-64
2022/05/10 01:41:51;;;;;;;;;;;;;;;14.33;65.72;97408.19;30001;983;1872;-62
2022/05/10 01:42:25;;;;;;;;;;;;;;;14.38;65.15;97408.09;30001;983;1864;-62
2022/05/10 01:43:11;;;;;;;;;;;;;;;14.39;65.53;97398.78;30001;983;1877;-63
2022/05/10 01:43:45;;;;;;;;;;;;;;;14.40;65.30;97403.16;30001;983;1882;-63
2022/05/10 01:44:23;;;;;;;;;;;;;;;14.41;65.20;97404.78;30001;983;1886;-63
2022/05/10 01:45:26;;;;;;;;;;;;;;;14.40;64.88;97403.94;30001;982;1881;-63
2022/05/10 01:46:00;;;;;;;;;;;;;;;14.42;65.15;97395.50;30001;982;1882;-61
2022/05/10 01:46:32;;;;;;;;;;;;;;;14.40;65.08;97398.50;30001;982;1882;-62
2022/05/10 01:47:06;;;;;;;;;;;;;;;14.44;65.06;97397.91;30001;982;1873;-63
2022/05/10 01:47:41;;;;;;;;;;;;;;;14.41;65.05;97393.87;30001;983;1872;-62
2022/05/10 01:48:15;;;;;;;;;;;;;;;14.40;65.17;97397.69;30001;983;1886;-63
2022/05/10 01:48:50;;;;;;;;;;;;;;;14.39;64.95;97396.06;30001;983;1881;-63
2022/05/10 01:49:32;;;;;;;;;;;;;;;14.37;65.15;97387.37;30001;983;1886;-62
2022/05/10 01:50:10;;;;;;;;;;;;;;;14.35;65.30;97401.31;30001;983;1868;-63
2022/05/10 01:50:50;;;;;;;;;;;;;;;14.35;65.64;97389.59;30001;987;1877;-62
2022/05/10 01:51:26;;;;;;;;;;;;;;;14.34;65.38;97394.25;30001;983;1882;-63
2022/05/10 01:52:02;;;;;;;;;;;;;;;14.34;64.96;97398.91;30001;983;1873;-62
2022/05/10 01:52:47;;;;;;;;;;;;;;;14.32;65.26;97395.66;30001;982;1873;-63
2022/05/10 01:53:20;;;;;;;;;;;;;;;14.32;65.37;97392.94;30001;982;1886;-61
2022/05/10 01:53:51;;;;;;;;;;;;;;;14.31;65.21;97389.41;30001;982;1882;-62
2022/05/10 01:54:44;;;;;;;;;;;;;;;14.32;65.39;97401.13;30001;982;1886;-62
2022/05/10 01:55:27;;;;;;;;;;;;;;;14.27;65.47;97385.66;30001;983;1863;-63
2022/05/10 01:56:15;;;;;;;;;;;;;;;14.26;65.81;97397.69;30001;983;1877;-61
2022/05/10 01:56:46;;;;;;;;;;;;;;;14.27;65.41;97393.03;30001;983;1881;-63
2022/05/10 01:57:17;;;;;;;;;;;;;;;14.28;65.50;97390.00;30001;983;1885;-61
2022/05/10 01:57:48;;;;;;;;;;;;;;;14.28;65.49;97394.66;30001;983;1868;-64
2022/05/10 01:58:23;;;;;;;;;;;;;;;14.31;65.39;97391.31;30001;983;1877;-64
2022/05/10 01:58:54;;;;;;;;;;;;;;;14.35;65.14;97389.59;30001;983;1882;-61
2022/05/10 01:59:25;;;;;;;;;;;;;;;14.34;65.25;97387.97;30001;983;1886;-63
2022/05/10 02:00:05;;;;;;;;;;;;;;;14.34;65.23;97387.97;30001;982;1882;-62
2022/05/10 02:00:38;;;;;;;;;;;;;;;14.31;65.29;97394.84;30001;982;1873;-63
2022/05/10 02:01:18;;;;;;;;;;;;;;;14.31;65.21;97388.59;30001;982;1873;-64
2022/05/10 02:01:50;;;;;;;;;;;;;;;14.29;65.53;97388.06;30001;982;1886;-63
2022/05/10 02:02:23;;;;;;;;;;;;;;;14.28;65.40;97386.47;30001;982;1882;-64
2022/05/10 02:03:00;;;;;;;;;;;;;;;14.25;65.65;97387.06;30001;983;1885;-61
2022/05/10 02:03:34;;;;;;;;;;;;;;;14.25;65.52;97387.88;30001;983;1881;-62
2022/05/10 02:04:08;;;;;;;;;;;;;;;14.24;65.83;97389.00;30001;983;1886;-63
2022/05/10 02:04:40;;;;;;;;;;;;;;;14.22;65.54;97380.28;30001;983;1881;-62
2022/05/10 02:05:14;;;;;;;;;;;;;;;14.22;65.78;97390.41;30001;983;1886;-62
2022/05/10 02:05:55;;;;;;;;;;;;;;;14.21;65.85;97386.06;30001;983;1868;-63
2022/05/10 02:06:31;;;;;;;;;;;;;;;14.20;65.57;97384.47;30001;983;1877;-64
2022/05/10 02:07:13;;;;;;;;;;;;;;;14.21;66.10;97394.25;30001;982;1882;-62
2022/05/10 02:07:45;;;;;;;;;;;;;;;14.19;65.92;97391.84;30001;982;1886;-64
2022/05/10 02:08:25;;;;;;;;;;;;;;;14.18;65.62;97389.41;30001;982;1882;-62
2022/05/10 02:09:01;;;;;;;;;;;;;;;14.15;65.76;97384.56;30001;982;1873;-63
2022/05/10 02:09:37;;;;;;;;;;;;;;;14.14;66.04;97389.22;30001;982;1873;-62
2022/05/10 02:10:12;;;;;;;;;;;;;;;14.15;66.06;97390.84;30001;983;1885;-63
2022/05/10 02:10:46;;;;;;;;;;;;;;;14.15;66.01;97381.84;30001;983;1881;-62
2022/05/10 02:11:17;;;;;;;;;;;;;;;14.13;66.22;97382.13;30001;983;1885;-62
2022/05/10 02:12:00;;;;;;;;;;;;;;;14.12;66.03;97382.44;30001;983;1881;-63
2022/05/10 02:12:39;;;;;;;;;;;;;;;14.10;65.96;97382.75;30001;983;1873;-63
2022/05/10 02:13:12;;;;;;;;;;;;;;;14.10;66.21;97388.19;30001;983;1872;-62
2022/05/10 02:14:03;;;;;;;;;;;;;;;14.06;66.45;97384.47;30001;983;1886;-63
2022/05/10 02:14:40;;;;;;;;;;;;;;;14.04;66.58;97387.50;30001;982;1877;-62
2022/05/10 02:15:42;;;;;;;;;;;;;;;14.03;66.55;97383.16;30001;982;1886;-63
2022/05/10 02:16:40;;;;;;;;;;;;;;;14.00;66.59;97393.84;30001;982;1864;-62
2022/05/10 02:17:15;;;;;;;;;;;;;;;13.98;66.51;97385.97;30001;982;1860;-62
2022/05/10 02:18:00;;;;;;;;;;;;;;;13.98;66.44;97380.50;30001;983;1881;-61
2022/05/10 02:18:34;;;;;;;;;;;;;;;13.97;66.88;97400.72;30001;983;1885;-62
2022/05/10 02:19:09;;;;;;;;;;;;;;;13.96;66.94;97396.38;30001;983;1881;-64
2022/05/10 02:19:44;;;;;;;;;;;;;;;13.96;67.08;97392.84;30001;983;1886;-62
2022/05/10 02:20:30;;;;;;;;;;;;;;;13.95;66.71;97389.28;30001;983;1881;-62
2022/05/10 02:21:04;;;;;;;;;;;;;;;13.95;66.89;97389.28;30001;983;1886;-62
2022/05/10 02:21:39;;;;;;;;;;;;;;;13.96;66.95;97392.84;30001;983;1868;-63
2022/05/10 02:22:13;;;;;;;;;;;;;;;13.96;67.12;97393.63;30001;982;1877;-62
2022/05/10 02:22:55;;;;;;;;;;;;;;;13.94;66.70;97387.69;30001;982;1882;-63
2022/05/10 02:23:40;;;;;;;;;;;;;;;13.93;67.23;97380.59;30001;982;1886;-63
2022/05/10 02:24:28;;;;;;;;;;;;;;;13.91;66.86;97391.00;30001;982;1882;-62
2022/05/10 02:25:20;;;;;;;;;;;;;;;13.90;67.24;97391.31;30001;982;1886;-61
2022/05/10 02:25:57;;;;;;;;;;;;;;;13.91;67.21;97391.00;30001;983;1864;-62
2022/05/10 02:26:31;;;;;;;;;;;;;;;13.90;66.83;97389.38;30001;983;1877;-63
2022/05/10 02:27:09;;;;;;;;;;;;;;;13.91;67.13;97398.38;30001;983;1868;-56
2022/05/10 02:27:48;;;;;;;;;;;;;;;13.91;67.13;97385.56;30001;983;1877;-63
2022/05/10 02:28:29;;;;;;;;;;;;;;;13.90;66.99;97392.13;30001;983;1881;-63
2022/05/10 02:29:16;;;;;;;;;;;;;;;13.89;67.11;97395.94;30001;983;1886;-62
2022/05/10 02:30:07;;;;;;;;;;;;;;;13.89;67.11;97392.41;30001;982;1881;-63
2022/05/10 02:30:38;;;;;;;;;;;;;;;13.88;67.19;97390.81;30001;982;1886;-63
2022/05/10 02:31:16;;;;;;;;;;;;;;;13.86;66.90;97393.81;30001;982;1882;-58
2022/05/10 02:33:07;;;;;;;;;;;;;;;13.85;67.22;97392.25;30001;983;1872;-62
2022/05/10 02:33:38;;;;;;;;;;;;;;;13.85;67.05;97386.78;30001;983;1873;-63
2022/05/10 02:34:09;;;;;;;;;;;;;;;13.84;67.46;97385.16;30001;983;1872;-57
2022/05/10 02:34:42;;;;;;;;;;;;;;;13.82;67.45;97386.56;30001;983;1873;-63
2022/05/10 02:35:14;;;;;;;;;;;;;;;13.81;67.37;97391.22;30001;983;1873;-62
2022/05/10 02:35:55;;;;;;;;;;;;;;;13.82;67.41;97376.47;30001;983;1886;-62
2022/05/10 02:36:26;;;;;;;;;;;;;;;13.83;67.61;97388.19;30001;983;1882;-62
2022/05/10 02:36:57;;;;;;;;;;;;;;;13.83;67.10;97390.91;30001;982;1873;-62
2022/05/10 02:37:28;;;;;;;;;;;;;;;13.85;67.28;97386.78;30001;982;1873;-62
2022/05/10 02:37:59;;;;;;;;;;;;;;;13.87;67.42;97392.72;30001;982;1886;-63
2022/05/10 02:38:32;;;;;;;;;;;;;;;13.91;67.22;97384.75;30001;982;1882;-62
2022/05/10 02:39:03;;;;;;;;;;;;;;;13.92;67.09;97386.34;30001;982;1886;-63
2022/05/10 02:39:35;;;;;;;;;;;;;;;13.91;67.03;97387.47;30001;983;1881;-61
2022/05/10 02:40:07;;;;;;;;;;;;;;;13.91;67.18;97377.38;30001;983;1885;-62
2022/05/10 02:40:41;;;;;;;;;;;;;;;13.89;66.76;97389.69;30001;983;1881;-57
2022/05/10 02:41:17;;;;;;;;;;;;;;;13.86;67.33;97382.13;30001;983;1886;-61
2022/05/10 02:41:48;;;;;;;;;;;;;;;13.87;67.27;97379.06;30001;983;1881;-62
2022/05/10 02:42:21;;;;;;;;;;;;;;;13.85;67.21;97392.25;30001;983;1872;-62
2022/05/10 02:42:51;;;;;;;;;;;;;;;13.83;67.44;97388.19;30001;983;1873;-63
2022/05/10 02:43:25;;;;;;;;;;;;;;;13.81;67.60;97391.22;30001;983;1886;-63
2022/05/10 02:43:58;;;;;;;;;;;;;;;13.81;67.12;97385.75;30001;983;1882;-58
2022/05/10 02:44:29;;;;;;;;;;;;;;;13.80;67.38;97384.16;30001;982;1886;-63
2022/05/10 02:45:01;;;;;;;;;;;;;;;13.79;67.46;97387.97;30001;982;1882;-63
2022/05/10 02:45:31;;;;;;;;;;;;;;;13.79;67.40;97387.97;30001;982;1886;-61
2022/05/10 02:46:02;;;;;;;;;;;;;;;13.77;67.74;97381.22;30001;982;1882;-62
2022/05/10 02:46:34;;;;;;;;;;;;;;;13.76;67.67;97383.12;30001;982;1886;-61
2022/05/10 02:47:06;;;;;;;;;;;;;;;13.76;67.52;97388.59;30001;983;1868;-61
2022/05/10 02:47:38;;;;;;;;;;;;;;;13.75;67.73;97392.41;30001;983;1876;-61
2022/05/10 02:48:19;;;;;;;;;;;;;;;13.73;67.48;97383.72;30001;983;1881;-62
2022/05/10 02:48:50;;;;;;;;;;;;;;;13.73;67.86;97383.72;30001;983;1885;-63
2022/05/10 02:49:21;;;;;;;;;;;;;;;13.73;68.08;97386.44;30001;983;1881;-62
2022/05/10 02:49:52;;;;;;;;;;;;;;;13.74;67.53;97386.16;30001;983;1886;-62
2022/05/10 02:50:25;;;;;;;;;;;;;;;13.75;68.08;97387.78;30001;983;1882;-62
2022/05/10 02:50:57;;;;;;;;;;;;;;;13.78;67.69;97380.91;30001;983;1886;-62
2022/05/10 02:51:28;;;;;;;;;;;;;;;13.77;67.66;97390.19;30001;983;1882;-62
2022/05/10 02:51:59;;;;;;;;;;;;;;;13.80;67.70;97386.87;30001;982;1873;-63
2022/05/10 02:52:30;;;;;;;;;;;;;;;13.79;67.76;97385.25;30001;982;1873;-62
2022/05/10 02:53:01;;;;;;;;;;;;;;;13.79;67.61;97382.53;30001;982;1886;-61
2022/05/10 02:53:32;;;;;;;;;;;;;;;13.78;67.60;97385.56;30001;985;1882;-63
2022/05/10 02:54:02;;;;;;;;;;;;;;;13.75;67.71;97381.50;30001;982;1886;-63
2022/05/10 02:54:34;;;;;;;;;;;;;;;13.76;68.18;97388.59;30001;983;1881;-62
2022/05/10 02:55:09;;;;;;;;;;;;;;;13.75;67.90;97381.50;30001;983;1885;-65
2022/05/10 02:55:44;;;;;;;;;;;;;;;13.76;67.82;97383.12;30001;983;1881;-62
2022/05/10 02:56:17;;;;;;;;;;;;;;;13.75;67.76;97386.97;30001;983;1886;-63
2022/05/10 02:56:49;;;;;;;;;;;;;;;13.75;68.07;97385.03;30001;983;1881;-64
2022/05/10 02:57:20;;;;;;;;;;;;;;;13.75;67.88;97382.31;30001;983;1873;-62
2022/05/10 02:57:52;;;;;;;;;;;;;;;13.72;67.96;97380.19;30001;983;1873;-62
2022/05/10 02:58:55;;;;;;;;;;;;;;;13.73;68.25;97378.28;30001;983;1886;-63
2022/05/10 02:59:30;;;;;;;;;;;;;;;13.74;68.30;97386.16;30001;983;1877;-61
2022/05/10 03:00:01;;;;;;;;;;;;;;;13.75;68.23;97386.97;30001;982;1886;-62
2022/05/10 03:00:33;;;;;;;;;;;;;;;13.74;67.90;97379.87;30001;982;1882;-61
2022/05/10 03:01:14;;;;;;;;;;;;;;;13.74;67.94;97379.87;30001;982;1886;-62
2022/05/10 03:01:53;;;;;;;;;;;;;;;13.74;68.08;97382.62;30001;982;1882;-63
2022/05/10 03:02:29;;;;;;;;;;;;;;;13.75;68.09;97376.88;30001;983;1872;-62
2022/05/10 03:03:04;;;;;;;;;;;;;;;13.75;67.87;97381.50;30001;983;1872;-65
2022/05/10 03:03:39;;;;;;;;;;;;;;;13.74;67.79;97374.44;30001;983;1886;-62
2022/05/10 03:04:10;;;;;;;;;;;;;;;13.74;67.90;97379.87;30001;983;1881;-63
2022/05/10 03:04:43;;;;;;;;;;;;;;;13.73;67.94;97378.28;30001;983;1886;-61
2022/05/10 03:05:14;;;;;;;;;;;;;;;13.73;68.07;97375.53;30001;983;1868;-62
2022/05/10 03:05:45;;;;;;;;;;;;;;;13.71;67.73;97384.03;30001;983;1864;-62
2022/05/10 03:06:21;;;;;;;;;;;;;;;13.69;68.04;97377.25;30001;983;1882;-63
2022/05/10 03:06:51;;;;;;;;;;;;;;;13.67;67.83;97374.03;30001;983;1886;-63
2022/05/10 03:07:23;;;;;;;;;;;;;;;13.66;68.15;97377.84;30001;982;1882;-61
2022/05/10 03:07:55;;;;;;;;;;;;;;;13.66;68.40;97383.31;30001;982;1873;-61
2022/05/10 03:08:26;;;;;;;;;;;;;;;13.66;68.15;97381.38;30001;982;1873;-63
2022/05/10 03:09:00;;;;;;;;;;;;;;;13.69;68.44;97382.72;30001;982;1886;-61
2022/05/10 03:09:32;;;;;;;;;;;;;;;13.67;68.37;97374.81;30001;983;1881;-57
2022/05/10 03:10:03;;;;;;;;;;;;;;;13.68;68.34;97376.44;30001;983;1872;-63
2022/05/10 03:10:34;;;;;;;;;;;;;;;13.67;68.08;97374.03;30001;983;1872;-62
2022/05/10 03:11:05;;;;;;;;;;;;;;;13.65;68.52;97381.69;30001;983;1885;-62
2022/05/10 03:11:37;;;;;;;;;;;;;;;13.64;68.56;97374.62;30001;983;1881;-63
2022/05/10 03:12:08;;;;;;;;;;;;;;;13.65;68.34;97381.69;30001;983;1886;-62
2022/05/10 03:12:39;;;;;;;;;;;;;;;13.66;68.32;97383.31;30001;983;1881;-62
2022/05/10 03:13:10;;;;;;;;;;;;;;;13.66;68.67;97377.84;30001;983;1886;-64
2022/05/10 03:13:41;;;;;;;;;;;;;;;13.67;68.15;97384.94;30001;983;1881;-62
2022/05/10 03:14:13;;;;;;;;;;;;;;;13.68;68.33;97375.62;30001;982;1886;-61
2022/05/10 03:14:44;;;;;;;;;;;;;;;13.68;68.25;97381.09;30001;986;1872;-61
2022/05/10 03:15:15;;;;;;;;;;;;;;;13.67;68.34;97379.47;30001;982;1873;-63
2022/05/10 03:15:46;;;;;;;;;;;;;;;13.67;68.59;97374.03;30001;982;1873;-63
2022/05/10 03:16:17;;;;;;;;;;;;;;;13.68;68.41;97372.91;30001;982;1886;-62
2022/05/10 03:16:47;;;;;;;;;;;;;;;13.67;68.07;97374.81;30001;982;1882;-62
2022/05/10 03:17:18;;;;;;;;;;;;;;;13.70;68.29;97373.41;30001;983;1885;-57